Time;durP1;ratioP1;P1;durP2;ratioP2;P2;SDS_P1;SDS_P2;PMS_P1;PMS_P2;Temp;Humidity;BMP_temperature;BMP_pressure;BME280_temperature;BME280_humidity;BME280_pressure;Samples;Min_cycle;Max_cycle;Signal;HPM_P1;HPM_P2
2022/04/19 00:03:52;;;;;;;4.40;1.87;;;;;;;;;;4807951;29;20270;-33
2022/04/19 00:06:19;;;;;;;4.03;2.03;;;;;;;;;;4818909;29;20244;-36
2022/04/19 00:08:48;;;;;;;2.53;1.90;;;;;;;;;;4819583;29;20206;-34
2022/04/19 00:11:15;;;;;;;2.30;1.97;;;;;;;;;;4818996;29;20218;-33
2022/04/19 00:13:42;;;;;;;2.20;2.00;;;;;;;;;;4810899;29;20222;-36
2022/04/19 00:16:09;;;;;;;2.63;1.73;;;;;;;;;;4821436;29;20234;-35
2022/04/19 00:18:36;;;;;;;3.07;2.30;;;;;;;;;;4815366;29;20214;-33
2022/04/19 00:21:04;;;;;;;2.40;2.20;;;;;;;;;;4876366;29;20245;-34
2022/04/19 00:23:31;;;;;;;2.20;2.00;;;;;;;;;;4876953;29;20207;-36
2022/04/19 00:25:59;;;;;;;4.90;1.97;;;;;;;;;;4891432;29;20230;-34
2022/04/19 00:28:27;;;;;;;2.53;1.60;;;;;;;;;;4896845;28;20220;-33
2022/04/19 00:30:54;;;;;;;2.97;1.83;;;;;;;;;;4972850;28;20241;-28
2022/04/19 00:33:21;;;;;;;3.00;1.80;;;;;;;;;;5035137;28;20210;-35
2022/04/19 00:35:49;;;;;;;2.77;2.10;;;;;;;;;;5046665;28;20248;-32
2022/04/19 00:38:16;;;;;;;5.20;2.07;;;;;;;;;;5038909;28;20222;-35
2022/04/19 00:40:43;;;;;;;2.27;2.07;;;;;;;;;;5054868;28;20211;-31
2022/04/19 00:43:10;;;;;;;4.27;2.27;;;;;;;;;;5101999;28;20290;-37
2022/04/19 00:45:37;;;;;;;2.17;1.97;;;;;;;;;;5108559;28;20224;-35
2022/04/19 00:48:05;;;;;;;2.33;2.13;;;;;;;;;;5099854;28;20203;-35
2022/04/19 00:50:32;;;;;;;2.50;2.17;;;;;;;;;;5109372;28;20208;-35
2022/04/19 00:53:01;;;;;;;4.63;2.10;;;;;;;;;;5108983;28;20200;-33
2022/04/19 00:55:28;;;;;;;2.50;2.30;;;;;;;;;;5102321;28;20548;-33
2022/04/19 00:57:56;;;;;;;1.87;1.60;;;;;;;;;;5104696;28;20220;-35
2022/04/19 01:00:24;;;;;;;3.13;2.23;;;;;;;;;;5104609;28;20215;-31
2022/04/19 01:02:51;;;;;;;2.53;2.07;;;;;;;;;;5103717;28;20219;-29
2022/04/19 01:05:19;;;;;;;2.20;2.00;;;;;;;;;;5095971;28;20249;-35
2022/04/19 01:07:47;;;;;;;2.27;1.93;;;;;;;;;;5109765;28;20191;-33
2022/04/19 01:10:14;;;;;;;2.37;1.97;;;;;;;;;;5110842;28;20215;-32
2022/04/19 01:15:27;;;;;;;4.07;2.00;;;;;;;;;;5104099;28;20269;-35
2022/04/19 01:17:55;;;;;;;3.27;1.90;;;;;;;;;;5104925;28;20226;-33
2022/04/19 01:20:22;;;;;;;3.67;1.83;;;;;;;;;;5103350;28;20204;-33
2022/04/19 01:22:51;;;;;;;3.03;2.03;;;;;;;;;;5109545;28;20200;-36
2022/04/19 01:25:19;;;;;;;3.43;2.00;;;;;;;;;;5102288;28;20232;-31
2022/04/19 01:27:47;;;;;;;2.27;2.07;;;;;;;;;;5097832;28;20574;-32
2022/04/19 01:30:14;;;;;;;2.50;2.03;;;;;;;;;;5110389;28;20221;-33
2022/04/19 01:32:41;;;;;;;2.37;2.10;;;;;;;;;;5103776;28;20206;-33
2022/04/19 01:35:10;;;;;;;2.70;2.00;;;;;;;;;;5091920;28;20236;-36
2022/04/19 01:37:37;;;;;;;2.90;1.93;;;;;;;;;;5105305;28;20239;-32
2022/04/19 01:40:20;;;;;;;2.70;2.17;;;;;;;;;;5110199;28;20216;-34
2022/04/19 01:42:50;;;;;;;1.83;1.67;;;;;;;;;;5101121;28;20215;-31
2022/04/19 01:45:18;;;;;;;2.20;1.90;;;;;;;;;;5109543;28;20295;-31
2022/04/19 01:47:46;;;;;;;2.03;1.93;;;;;;;;;;5100333;28;20197;-33
2022/04/19 01:50:14;;;;;;;3.60;2.20;;;;;;;;;;5094688;28;20211;-32
2022/04/19 01:52:42;;;;;;;2.13;1.93;;;;;;;;;;5111134;28;20203;-31
2022/04/19 01:55:13;;;;;;;2.23;2.00;;;;;;;;;;5113697;28;20220;-39
2022/04/19 01:57:41;;;;;;;3.37;1.90;;;;;;;;;;5106941;28;20270;-32
2022/04/19 02:00:09;;;;;;;1.87;1.77;;;;;;;;;;5104567;28;20233;-36
2022/04/19 02:02:36;;;;;;;3.23;2.00;;;;;;;;;;5108999;28;20207;-34
2022/04/19 02:05:03;;;;;;;3.13;2.20;;;;;;;;;;5101956;28;20232;-28
2022/04/19 02:07:32;;;;;;;2.80;1.87;;;;;;;;;;5113520;28;20207;-37
2022/04/19 02:09:59;;;;;;;2.23;2.03;;;;;;;;;;5113946;28;20212;-36
2022/04/19 02:12:27;;;;;;;2.20;2.00;;;;;;;;;;5106270;28;20204;-36
2022/04/19 02:14:55;;;;;;;2.33;2.10;;;;;;;;;;5107699;28;20200;-33
2022/04/19 02:17:23;;;;;;;2.20;2.03;;;;;;;;;;5106043;28;20220;-38
2022/04/19 02:19:51;;;;;;;8.03;2.00;;;;;;;;;;5096398;28;20210;-36
2022/04/19 02:22:19;;;;;;;3.17;1.80;;;;;;;;;;5113668;28;20212;-30
2022/04/19 02:24:47;;;;;;;2.63;2.00;;;;;;;;;;5112799;28;20233;-33
2022/04/19 02:27:14;;;;;;;1.90;1.53;;;;;;;;;;5103188;28;20215;-33
2022/04/19 02:29:42;;;;;;;4.73;2.03;;;;;;;;;;5103723;28;20203;-33
2022/04/19 02:32:09;;;;;;;3.60;2.20;;;;;;;;;;5105289;28;20202;-31
2022/04/19 02:34:37;;;;;;;2.10;1.83;;;;;;;;;;5108307;27;20206;-33
2022/04/19 02:37:04;;;;;;;4.43;2.30;;;;;;;;;;5106709;28;20216;-31
2022/04/19 02:39:31;;;;;;;2.23;2.00;;;;;;;;;;5114347;28;20196;-36
2022/04/19 02:41:58;;;;;;;2.10;1.77;;;;;;;;;;5114399;28;20200;-35
2022/04/19 02:44:25;;;;;;;1.50;1.40;;;;;;;;;;5103889;28;20219;-36
2022/04/19 02:46:54;;;;;;;3.20;2.00;;;;;;;;;;5112321;28;20220;-33
2022/04/19 02:49:21;;;;;;;3.87;2.23;;;;;;;;;;5108603;28;20193;-34
2022/04/19 02:51:48;;;;;;;2.00;1.80;;;;;;;;;;5106891;28;20208;-30
2022/04/19 02:54:16;;;;;;;2.10;1.90;;;;;;;;;;5111947;28;20246;-32
2022/04/19 02:56:43;;;;;;;1.67;1.57;;;;;;;;;;5112170;27;20224;-36
2022/04/19 02:59:10;;;;;;;1.47;1.37;;;;;;;;;;5100145;28;20228;-31
2022/04/19 03:01:37;;;;;;;1.50;1.33;;;;;;;;;;5112126;28;20559;-29
2022/04/19 03:04:06;;;;;;;1.73;1.60;;;;;;;;;;5107880;28;20214;-31
2022/04/19 03:06:33;;;;;;;1.70;1.57;;;;;;;;;;5110616;28;20228;-36
2022/04/19 03:09:00;;;;;;;1.90;1.80;;;;;;;;;;5111839;28;20202;-35
2022/04/19 03:11:28;;;;;;;2.40;1.57;;;;;;;;;;5112579;28;20196;-38
2022/04/19 03:13:55;;;;;;;2.77;1.70;;;;;;;;;;5104020;28;20205;-37
2022/04/19 03:16:23;;;;;;;1.53;1.43;;;;;;;;;;5102155;28;20231;-35
2022/04/19 03:18:50;;;;;;;2.57;1.90;;;;;;;;;;5111634;28;20223;-29
2022/04/19 03:21:18;;;;;;;2.83;2.00;;;;;;;;;;5097924;28;20214;-29
2022/04/19 03:29:17;;;;;;;3.03;1.97;;;;;;;;;;5088461;28;20204;-40
2022/04/19 03:31:45;;;;;;;1.80;1.70;;;;;;;;;;5110489;28;20204;-35
2022/04/19 03:34:12;;;;;;;2.57;1.97;;;;;;;;;;5107235;28;20294;-34
2022/04/19 03:36:40;;;;;;;1.80;1.67;;;;;;;;;;5104333;28;20228;-31
2022/04/19 03:39:08;;;;;;;2.13;1.87;;;;;;;;;;5111774;28;20232;-32
2022/04/19 03:41:35;;;;;;;1.47;1.37;;;;;;;;;;5112296;28;20208;-34
2022/04/19 03:44:02;;;;;;;2.03;1.90;;;;;;;;;;5102727;28;20281;-35
2022/04/19 03:46:29;;;;;;;3.20;1.93;;;;;;;;;;5108630;28;20223;-30
2022/04/19 03:48:56;;;;;;;2.43;1.77;;;;;;;;;;5111589;28;20623;-36
2022/04/19 03:51:24;;;;;;;3.67;1.80;;;;;;;;;;5097623;28;20299;-31
2022/04/19 03:53:52;;;;;;;2.23;1.70;;;;;;;;;;5111745;28;20283;-34
2022/04/19 03:56:20;;;;;;;3.07;2.10;;;;;;;;;;5115094;28;20227;-37
2022/04/19 03:58:47;;;;;;;2.23;2.03;;;;;;;;;;5109856;28;20256;-31
2022/04/19 04:01:14;;;;;;;3.27;2.03;;;;;;;;;;5111253;28;20211;-34
2022/04/19 04:03:42;;;;;;;3.10;1.93;;;;;;;;;;5111571;28;20204;-31
2022/04/19 04:06:09;;;;;;;2.17;1.70;;;;;;;;;;5105710;27;20236;-33
2022/04/19 04:08:36;;;;;;;1.90;1.80;;;;;;;;;;5107160;28;20472;-29
2022/04/19 04:11:04;;;;;;;1.67;1.50;;;;;;;;;;5111549;28;20203;-35
2022/04/19 04:13:31;;;;;;;2.20;1.37;;;;;;;;;;5106885;28;20200;-36
2022/04/19 04:15:58;;;;;;;1.87;1.60;;;;;;;;;;5108769;28;20302;-34
2022/04/19 04:18:26;;;;;;;2.07;1.60;;;;;;;;;;5111878;28;20223;-35
2022/04/19 04:20:53;;;;;;;2.50;2.13;;;;;;;;;;5096842;28;20205;-36
2022/04/19 04:23:20;;;;;;;1.93;1.77;;;;;;;;;;5105540;28;20204;-37
2022/04/19 04:25:47;;;;;;;2.97;2.30;;;;;;;;;;5111346;28;20220;-31
2022/04/19 04:28:15;;;;;;;2.10;1.90;;;;;;;;;;5111563;28;20211;-38
2022/04/19 04:30:42;;;;;;;3.10;1.93;;;;;;;;;;5097750;28;20204;-32
2022/04/19 04:33:10;;;;;;;1.73;1.57;;;;;;;;;;5096055;28;20208;-33
2022/04/19 04:35:37;;;;;;;1.83;1.60;;;;;;;;;;5103605;28;20572;-33
2022/04/19 04:38:04;;;;;;;1.83;1.63;;;;;;;;;;5110164;28;20293;-32
2022/04/19 04:40:31;;;;;;;1.97;1.80;;;;;;;;;;5113105;28;20200;-38
2022/04/19 04:42:58;;;;;;;2.07;1.90;;;;;;;;;;5110474;28;20196;-31
2022/04/19 04:45:27;;;;;;;1.60;1.50;;;;;;;;;;5109733;28;20227;-33
2022/04/19 04:50:39;;;;;;;3.13;2.73;;;;;;;;;;5098963;28;20243;-33
2022/04/19 04:53:06;;;;;;;1.57;1.47;;;;;;;;;;5106570;28;20235;-29
2022/04/19 04:55:34;;;;;;;1.80;1.70;;;;;;;;;;5112849;28;20219;-37
2022/04/19 04:58:01;;;;;;;2.30;2.10;;;;;;;;;;5110935;28;20246;-33
2022/04/19 05:00:30;;;;;;;2.50;1.73;;;;;;;;;;5107819;28;20207;-34
2022/04/19 05:02:57;;;;;;;1.90;1.80;;;;;;;;;;5112563;28;20204;-36
2022/04/19 05:05:24;;;;;;;1.80;1.70;;;;;;;;;;5094336;28;20231;-32
2022/04/19 05:07:54;;;;;;;1.93;1.73;;;;;;;;;;5106781;28;20207;-31
2022/04/19 05:10:21;;;;;;;2.00;1.80;;;;;;;;;;5112812;28;20228;-34
2022/04/19 05:12:48;;;;;;;1.70;1.60;;;;;;;;;;5106767;28;20203;-32
2022/04/19 05:15:15;;;;;;;1.90;1.80;;;;;;;;;;5112006;28;20630;-32
2022/04/19 05:17:44;;;;;;;2.47;1.77;;;;;;;;;;5113109;28;20226;-38
2022/04/19 05:20:11;;;;;;;2.53;2.17;;;;;;;;;;5105216;28;20204;-28
2022/04/19 05:22:38;;;;;;;5.27;2.40;;;;;;;;;;5106893;28;20236;-33
2022/04/19 05:25:06;;;;;;;2.03;1.83;;;;;;;;;;5115380;28;20269;-33
2022/04/19 05:27:33;;;;;;;2.33;1.80;;;;;;;;;;5111101;28;20212;-32
2022/04/19 05:30:00;;;;;;;2.83;2.50;;;;;;;;;;5110736;27;20231;-31
2022/04/19 05:32:28;;;;;;;2.53;2.20;;;;;;;;;;5116834;28;20214;-30
2022/04/19 05:34:57;;;;;;;2.30;2.10;;;;;;;;;;5113078;28;20211;-38
2022/04/19 05:37:24;;;;;;;2.50;2.30;;;;;;;;;;5100416;28;20644;-35
2022/04/19 05:39:51;;;;;;;3.13;2.00;;;;;;;;;;5114839;28;20212;-33
2022/04/19 05:42:18;;;;;;;5.23;2.33;;;;;;;;;;5106596;27;20208;-31
2022/04/19 05:44:45;;;;;;;3.63;2.40;;;;;;;;;;5109333;28;20249;-37
2022/04/19 05:47:12;;;;;;;2.30;2.07;;;;;;;;;;5115482;28;20210;-34
2022/04/19 05:49:39;;;;;;;3.37;2.30;;;;;;;;;;5109579;27;20284;-33
2022/04/19 05:52:08;;;;;;;2.17;2.00;;;;;;;;;;5108748;28;20204;-29
2022/04/19 05:54:35;;;;;;;4.80;2.17;;;;;;;;;;5115040;28;20658;-30
2022/04/19 05:57:03;;;;;;;3.23;2.07;;;;;;;;;;5115230;28;20232;-38
2022/04/19 05:59:30;;;;;;;5.87;2.10;;;;;;;;;;5106374;27;20314;-29
2022/04/19 06:04:54;;;;;;;2.10;1.90;;;;;;;;;;5096166;28;20211;-31
2022/04/19 06:07:23;;;;;;;2.30;2.10;;;;;;;;;;5108628;28;20291;-32
2022/04/19 06:09:51;;;;;;;2.80;2.50;;;;;;;;;;5115526;28;20203;-33
2022/04/19 06:12:18;;;;;;;2.90;2.20;;;;;;;;;;5098188;27;20291;-35
2022/04/19 06:14:45;;;;;;;3.17;2.17;;;;;;;;;;5098892;28;20209;-33
2022/04/19 06:17:17;;;;;;;3.70;2.10;;;;;;;;;;5113305;28;20265;-30
2022/04/19 06:19:44;;;;;;;3.53;2.77;;;;;;;;;;5107275;28;20266;-32
2022/04/19 06:22:13;;;;;;;3.97;2.13;;;;;;;;;;5102216;28;20209;-35
2022/04/19 06:24:41;;;;;;;3.47;2.30;;;;;;;;;;5115037;28;20219;-31
2022/04/19 06:27:08;;;;;;;3.67;2.70;;;;;;;;;;5114632;28;20207;-33
2022/04/19 06:29:35;;;;;;;6.77;2.70;;;;;;;;;;5110917;28;20223;-35
2022/04/19 06:32:03;;;;;;;3.23;2.47;;;;;;;;;;5105696;28;20208;-37
2022/04/19 06:34:30;;;;;;;6.00;2.40;;;;;;;;;;5108748;28;20283;-31
2022/04/19 06:36:57;;;;;;;3.63;2.67;;;;;;;;;;5101115;28;20671;-32
2022/04/19 06:39:24;;;;;;;2.57;2.30;;;;;;;;;;5109164;28;20308;-32
2022/04/19 06:41:54;;;;;;;2.97;2.10;;;;;;;;;;5095554;28;20394;-30
2022/04/19 06:44:22;;;;;;;2.43;2.23;;;;;;;;;;5106973;27;20205;-32
2022/04/19 06:46:50;;;;;;;2.50;2.30;;;;;;;;;;5111151;28;20215;-33
2022/04/19 06:49:17;;;;;;;2.27;2.07;;;;;;;;;;5110529;28;20226;-37
2022/04/19 06:51:44;;;;;;;3.93;2.50;;;;;;;;;;5101642;28;20213;-29
2022/04/19 06:54:12;;;;;;;3.67;2.70;;;;;;;;;;5114060;28;20209;-37
2022/04/19 06:56:39;;;;;;;3.77;2.43;;;;;;;;;;5115482;28;20309;-31
2022/04/19 06:59:08;;;;;;;2.90;2.40;;;;;;;;;;5099912;28;20220;-33
2022/04/19 07:01:37;;;;;;;2.23;1.90;;;;;;;;;;5118122;27;20258;-35
2022/04/19 07:04:05;;;;;;;2.93;2.53;;;;;;;;;;5120294;27;20192;-34
2022/04/19 07:06:32;;;;;;;2.43;2.23;;;;;;;;;;5101105;28;20228;-39
2022/04/19 07:09:00;;;;;;;3.23;2.90;;;;;;;;;;5113533;28;20267;-31
2022/04/19 07:11:27;;;;;;;6.23;2.73;;;;;;;;;;5107994;28;20213;-35
2022/04/19 07:13:54;;;;;;;3.07;2.77;;;;;;;;;;5107552;28;20206;-34
2022/04/19 07:16:22;;;;;;;5.57;3.30;;;;;;;;;;5100763;28;20230;-35
2022/04/19 07:18:49;;;;;;;2.60;2.40;;;;;;;;;;5113917;28;20222;-35
2022/04/19 07:26:47;;;;;;;3.83;2.80;;;;;;;;;;5114301;28;20265;-39
2022/04/19 07:29:18;;;;;;;2.37;2.17;;;;;;;;;;5108168;28;20213;-34
2022/04/19 07:31:47;;;;;;;3.60;2.40;;;;;;;;;;5101134;28;20232;-32
2022/04/19 07:34:15;;;;;;;2.90;2.43;;;;;;;;;;5111221;28;20210;-35
2022/04/19 07:36:42;;;;;;;3.87;2.40;;;;;;;;;;5110710;28;20223;-36
2022/04/19 07:39:09;;;;;;;2.60;2.40;;;;;;;;;;5108381;27;20216;-31
2022/04/19 07:41:37;;;;;;;2.60;2.40;;;;;;;;;;5114027;28;20204;-29
2022/04/19 07:44:08;;;;;;;2.43;2.17;;;;;;;;;;5105696;27;20207;-33
2022/04/19 07:46:36;;;;;;;4.20;2.70;;;;;;;;;;5109431;27;20227;-34
2022/04/19 07:49:05;;;;;;;2.53;2.33;;;;;;;;;;5107358;28;20200;-33
2022/04/19 07:51:32;;;;;;;3.13;2.83;;;;;;;;;;5107026;28;20210;-30
2022/04/19 07:53:59;;;;;;;2.70;2.43;;;;;;;;;;5112329;28;20200;-39
2022/04/19 07:56:26;;;;;;;3.10;2.80;;;;;;;;;;5116242;27;20310;-30
2022/04/19 07:58:53;;;;;;;2.90;2.60;;;;;;;;;;5128235;27;20224;-39
2022/04/19 08:01:21;;;;;;;3.03;2.70;;;;;;;;;;5106146;28;20199;-33
2022/04/19 08:03:48;;;;;;;4.37;2.73;;;;;;;;;;5112338;28;20211;-35
2022/04/19 08:06:17;;;;;;;2.53;2.33;;;;;;;;;;5100191;28;20234;-30
2022/04/19 08:08:44;;;;;;;3.73;2.97;;;;;;;;;;5113240;27;20223;-29
2022/04/19 08:11:11;;;;;;;6.37;3.47;;;;;;;;;;5116090;27;20252;-36
2022/04/19 08:13:39;;;;;;;3.33;3.00;;;;;;;;;;5116810;27;20561;-34
2022/04/19 08:16:12;;;;;;;4.53;2.93;;;;;;;;;;5072293;28;20455;-33
2022/04/19 08:23:44;;;;;;;3.30;3.00;;;;;;;;;;5077433;28;20248;-32
2022/04/19 08:26:11;;;;;;;2.90;2.60;;;;;;;;;;5088432;28;20224;-31
2022/04/19 08:28:39;;;;;;;3.93;2.90;;;;;;;;;;5089605;28;20405;-30
2022/04/19 08:31:06;;;;;;;3.30;2.90;;;;;;;;;;5081475;28;20196;-31
2022/04/19 08:33:33;;;;;;;3.07;2.57;;;;;;;;;;5079543;28;20304;-29
2022/04/19 08:36:02;;;;;;;4.77;2.80;;;;;;;;;;5071484;28;21257;-29
2022/04/19 08:38:29;;;;;;;4.50;2.90;;;;;;;;;;5069502;28;20212;-30
2022/04/19 08:40:58;;;;;;;5.53;3.10;;;;;;;;;;5089112;28;20220;-30
2022/04/19 08:43:25;;;;;;;4.10;3.07;;;;;;;;;;5090805;28;20296;-30
2022/04/19 08:45:53;;;;;;;5.53;3.00;;;;;;;;;;5077733;28;20223;-32
2022/04/19 08:48:21;;;;;;;4.27;3.43;;;;;;;;;;5081727;28;20204;-30
2022/04/19 08:50:49;;;;;;;4.07;3.37;;;;;;;;;;5075246;28;20296;-32
2022/04/19 08:58:58;;;;;;;4.47;3.07;;;;;;;;;;5078834;28;20347;-33
2022/04/19 09:01:25;;;;;;;3.80;3.10;;;;;;;;;;5081910;28;20291;-31
2022/04/19 09:03:52;;;;;;;7.90;3.50;;;;;;;;;;5073749;28;20197;-29
2022/04/19 09:06:19;;;;;;;3.60;3.00;;;;;;;;;;5078863;28;20251;-30
2022/04/19 09:09:08;;;;;;;4.00;3.03;;;;;;;;;;5074587;28;20212;-30
2022/04/19 09:11:37;;;;;;;3.17;2.87;;;;;;;;;;5094115;28;20208;-30
2022/04/19 09:14:08;;;;;;;4.37;3.20;;;;;;;;;;5093914;28;20268;-32
2022/04/19 09:16:35;;;;;;;6.43;2.83;;;;;;;;;;5085417;28;20216;-31
2022/04/19 09:19:02;;;;;;;2.90;2.53;;;;;;;;;;5070540;28;20208;-29
2022/04/19 09:21:37;;;;;;;5.40;3.30;;;;;;;;;;5081544;28;20209;-32
2022/04/19 09:24:16;;;;;;;3.77;3.20;;;;;;;;;;5083788;28;20196;-33
2022/04/19 09:26:45;;;;;;;3.37;2.70;;;;;;;;;;5094215;28;20223;-29
2022/04/19 09:29:20;;;;;;;3.73;2.93;;;;;;;;;;5090681;28;20208;-32
2022/04/19 09:31:47;;;;;;;7.10;3.30;;;;;;;;;;5085205;28;20230;-33
2022/04/19 09:34:24;;;;;;;5.37;3.10;;;;;;;;;;5087765;28;20228;-33
2022/04/19 09:36:54;;;;;;;3.60;3.10;;;;;;;;;;5078808;28;20224;-30
2022/04/19 09:39:27;;;;;;;4.37;2.90;;;;;;;;;;5086918;28;20201;-31
2022/04/19 09:42:03;;;;;;;4.20;2.93;;;;;;;;;;5093815;28;20205;-30
2022/04/19 09:44:31;;;;;;;3.47;2.70;;;;;;;;;;5085119;28;20220;-32
2022/04/19 09:47:02;;;;;;;3.83;2.37;;;;;;;;;;5081009;28;20237;-32
2022/04/19 09:49:41;;;;;;;5.73;3.03;;;;;;;;;;5084616;28;20199;-31
2022/04/19 09:52:09;;;;;;;3.87;2.43;;;;;;;;;;5078627;28;20209;-30
2022/04/19 09:54:36;;;;;;;3.40;2.80;;;;;;;;;;5083591;28;20272;-32
2022/04/19 09:57:11;;;;;;;3.53;2.70;;;;;;;;;;5083240;28;20225;-31
2022/04/19 09:59:41;;;;;;;2.83;2.50;;;;;;;;;;5077628;28;20311;-31
2022/04/19 10:10:25;;;;;;;2.17;1.97;;;;;;;;;;5076684;28;20209;-31
2022/04/19 10:12:54;;;;;;;3.67;2.20;;;;;;;;;;5079788;28;20270;-31
2022/04/19 10:15:22;;;;;;;2.20;1.90;;;;;;;;;;5079423;28;20232;-31
2022/04/19 10:17:50;;;;;;;3.27;1.93;;;;;;;;;;5069048;28;20205;-32
2022/04/19 10:20:17;;;;;;;2.43;2.23;;;;;;;;;;5078690;28;20236;-32
2022/04/19 10:22:48;;;;;;;2.23;2.00;;;;;;;;;;5081199;28;20205;-30
2022/04/19 10:25:15;;;;;;;3.10;2.57;;;;;;;;;;5085348;28;20232;-31
2022/04/19 10:27:43;;;;;;;4.53;2.20;;;;;;;;;;5078881;28;20204;-29
2022/04/19 10:30:19;;;;;;;2.10;1.90;;;;;;;;;;5081629;28;20210;-31
2022/04/19 10:32:46;;;;;;;2.00;1.80;;;;;;;;;;5078598;28;20311;-30
2022/04/19 10:35:14;;;;;;;2.50;2.30;;;;;;;;;;5083111;28;20287;-33
2022/04/19 10:37:42;;;;;;;2.83;1.83;;;;;;;;;;5079161;28;20213;-30
2022/04/19 10:40:12;;;;;;;2.40;2.20;;;;;;;;;;5079033;28;20225;-32
2022/04/19 10:42:42;;;;;;;2.47;1.90;;;;;;;;;;5072514;28;20201;-32
2022/04/19 10:45:28;;;;;;;2.50;2.07;;;;;;;;;;5077068;28;20227;-30
2022/04/19 10:48:07;;;;;;;4.50;1.83;;;;;;;;;;5094201;28;20200;-30
2022/04/19 10:50:36;;;;;;;3.17;2.30;;;;;;;;;;5074199;28;20209;-32
2022/04/19 10:53:04;;;;;;;1.97;1.77;;;;;;;;;;5072329;28;20731;-32
2022/04/19 10:55:32;;;;;;;3.60;2.20;;;;;;;;;;5076812;28;20228;-32
2022/04/19 10:58:12;;;;;;;2.47;1.90;;;;;;;;;;5075606;28;20324;-32
2022/04/19 11:01:00;;;;;;;2.30;2.10;;;;;;;;;;5074492;28;20244;-30
2022/04/19 11:03:51;;;;;;;2.23;2.03;;;;;;;;;;5081275;28;20291;-30
2022/04/19 11:06:32;;;;;;;2.03;1.80;;;;;;;;;;5081138;28;20234;-30
2022/04/19 11:09:11;;;;;;;2.73;1.73;;;;;;;;;;5092448;28;20208;-32
2022/04/19 11:11:51;;;;;;;2.67;2.27;;;;;;;;;;5074416;28;20209;-33
2022/04/19 11:14:20;;;;;;;3.27;1.90;;;;;;;;;;5086318;28;20228;-30
2022/04/19 11:16:50;;;;;;;2.03;1.60;;;;;;;;;;5085603;28;20307;-32
2022/04/19 11:19:19;;;;;;;2.87;1.60;;;;;;;;;;5079430;28;20209;-30
2022/04/19 11:21:48;;;;;;;2.23;2.00;;;;;;;;;;5071933;28;20227;-30
2022/04/19 11:24:15;;;;;;;1.77;1.67;;;;;;;;;;5071666;28;20212;-33
2022/04/19 11:26:42;;;;;;;1.73;1.63;;;;;;;;;;5073935;28;20321;-29
2022/04/19 11:29:18;;;;;;;2.00;1.80;;;;;;;;;;5085299;28;20261;-30
2022/04/19 11:32:00;;;;;;;2.23;1.83;;;;;;;;;;5088076;28;20596;-32
2022/04/19 11:34:28;;;;;;;3.80;1.90;;;;;;;;;;5078721;28;20204;-31
2022/04/19 11:36:59;;;;;;;2.43;1.90;;;;;;;;;;5092095;28;20221;-30
2022/04/19 11:47:44;;;;;;;2.83;1.90;;;;;;;;;;5083454;28;20249;-30
2022/04/19 11:50:28;;;;;;;5.03;2.13;;;;;;;;;;5084748;28;20285;-34
2022/04/19 11:52:56;;;;;;;2.23;2.03;;;;;;;;;;5071000;28;20208;-33
2022/04/19 11:55:25;;;;;;;4.43;2.50;;;;;;;;;;5072812;28;20229;-29
2022/04/19 11:58:02;;;;;;;3.80;2.63;;;;;;;;;;5081679;28;20220;-30
2022/04/19 12:00:30;;;;;;;6.10;2.90;;;;;;;;;;5086943;28;20233;-32
2022/04/19 12:03:01;;;;;;;2.63;2.40;;;;;;;;;;5077885;28;20212;-30
2022/04/19 12:05:29;;;;;;;3.63;2.57;;;;;;;;;;5089935;28;20227;-30
2022/04/19 12:07:58;;;;;;;5.10;2.33;;;;;;;;;;5079804;28;20246;-31
2022/04/19 12:10:25;;;;;;;5.13;2.80;;;;;;;;;;5078796;28;20288;-32
2022/04/19 12:12:53;;;;;;;2.97;2.10;;;;;;;;;;5081585;28;20207;-33
2022/04/19 12:15:41;;;;;;;4.40;2.30;;;;;;;;;;5076825;28;20228;-30
2022/04/19 12:18:10;;;;;;;2.47;2.27;;;;;;;;;;5078387;28;20204;-32
2022/04/19 12:20:44;;;;;;;3.10;2.13;;;;;;;;;;5073732;28;20229;-30
2022/04/19 12:23:19;;;;;;;2.30;2.03;;;;;;;;;;5091515;28;20311;-31
2022/04/19 12:25:58;;;;;;;3.43;1.90;;;;;;;;;;5081805;28;20225;-29
2022/04/19 12:28:34;;;;;;;4.07;2.33;;;;;;;;;;5081145;28;20208;-30
2022/04/19 12:31:05;;;;;;;2.87;2.33;;;;;;;;;;5070849;28;20201;-30
2022/04/19 12:33:34;;;;;;;3.53;2.30;;;;;;;;;;5069553;28;20208;-31
2022/04/19 12:36:01;;;;;;;4.23;3.00;;;;;;;;;;5076957;28;20212;-32
2022/04/19 12:38:33;;;;;;;5.93;3.53;;;;;;;;;;5091297;28;20254;-32
2022/04/19 12:41:00;;;;;;;2.93;2.60;;;;;;;;;;5086489;28;20221;-30
2022/04/19 12:43:44;;;;;;;2.83;2.50;;;;;;;;;;5074624;28;20213;-31
2022/04/19 12:46:14;;;;;;;5.87;3.03;;;;;;;;;;5084476;28;20273;-29
2022/04/19 12:48:41;;;;;;;3.53;2.70;;;;;;;;;;5078793;28;20307;-32
2022/04/19 12:51:09;;;;;;;3.53;3.03;;;;;;;;;;5083720;28;20197;-31
2022/04/19 12:53:40;;;;;;;4.23;2.97;;;;;;;;;;5086259;28;20207;-31
2022/04/19 12:56:11;;;;;;;5.90;3.37;;;;;;;;;;5079933;28;20239;-31
2022/04/19 12:58:43;;;;;;;4.33;3.10;;;;;;;;;;5075077;28;20202;-30
2022/04/19 13:01:10;;;;;;;3.93;2.60;;;;;;;;;;5077755;28;20217;-30
2022/04/19 13:03:38;;;;;;;3.03;2.70;;;;;;;;;;5069382;28;20256;-32
2022/04/19 13:14:21;;;;;;;4.67;2.80;;;;;;;;;;5070481;28;20558;-29
2022/04/19 13:16:48;;;;;;;5.70;3.30;;;;;;;;;;5071677;28;20270;-30
2022/04/19 13:19:15;;;;;;;3.87;3.10;;;;;;;;;;5082679;28;20237;-31
2022/04/19 13:21:43;;;;;;;5.07;2.40;;;;;;;;;;5078424;28;20229;-32
2022/04/19 13:24:11;;;;;;;4.23;2.43;;;;;;;;;;5074429;28;20205;-32
2022/04/19 13:26:39;;;;;;;5.43;3.00;;;;;;;;;;5077715;28;20232;-31
2022/04/19 13:29:06;;;;;;;4.10;2.27;;;;;;;;;;5079278;28;20251;-33
2022/04/19 13:31:34;;;;;;;2.60;2.20;;;;;;;;;;5083805;28;20208;-31
2022/04/19 13:34:02;;;;;;;2.77;2.40;;;;;;;;;;5074157;28;20204;-33
2022/04/19 13:36:29;;;;;;;4.13;1.97;;;;;;;;;;5074165;28;20230;-32
2022/04/19 13:38:57;;;;;;;2.30;1.93;;;;;;;;;;5087512;28;20201;-29
2022/04/19 13:41:25;;;;;;;2.37;2.17;;;;;;;;;;5086140;28;20311;-31
2022/04/19 13:43:53;;;;;;;2.93;1.90;;;;;;;;;;5081581;28;20198;-30
2022/04/19 13:46:20;;;;;;;3.07;2.10;;;;;;;;;;5074687;28;20228;-32
2022/04/19 13:48:47;;;;;;;2.10;1.90;;;;;;;;;;5082812;28;20208;-33
2022/04/19 13:51:14;;;;;;;1.90;1.80;;;;;;;;;;5080913;28;20201;-32
2022/04/19 13:53:41;;;;;;;3.80;1.60;;;;;;;;;;5091161;28;20211;-33
2022/04/19 13:56:09;;;;;;;1.67;1.57;;;;;;;;;;5082568;28;20240;-32
2022/04/19 13:58:37;;;;;;;1.80;1.43;;;;;;;;;;5077675;28;20287;-30
2022/04/19 14:01:04;;;;;;;5.30;1.70;;;;;;;;;;5080410;28;20228;-32
2022/04/19 14:03:31;;;;;;;1.33;1.23;;;;;;;;;;5080165;28;20213;-31
2022/04/19 14:06:00;;;;;;;1.30;1.30;;;;;;;;;;5079070;28;20271;-32
2022/04/19 14:08:27;;;;;;;2.37;1.60;;;;;;;;;;5083118;28;20218;-30
2022/04/19 14:10:58;;;;;;;2.13;1.93;;;;;;;;;;5091024;28;20763;-31
2022/04/19 14:13:25;;;;;;;2.10;1.40;;;;;;;;;;5094118;28;20208;-31
2022/04/19 14:15:53;;;;;;;6.93;1.90;;;;;;;;;;5088945;28;20229;-33
2022/04/19 14:18:21;;;;;;;4.33;1.73;;;;;;;;;;5077790;28;20201;-30
2022/04/19 14:20:49;;;;;;;2.67;1.73;;;;;;;;;;5082119;28;20259;-33
2022/04/19 14:23:16;;;;;;;3.83;1.67;;;;;;;;;;5087077;28;20221;-33
2022/04/19 14:25:44;;;;;;;1.70;1.60;;;;;;;;;;5091324;28;20230;-33
2022/04/19 14:28:11;;;;;;;1.40;1.30;;;;;;;;;;5082572;28;20268;-30
2022/04/19 14:33:25;;;;;;;2.07;1.70;;;;;;;;;;5077940;28;20492;-33
2022/04/19 14:35:53;;;;;;;6.03;1.60;;;;;;;;;;5080316;28;20316;-30
2022/04/19 14:38:21;;;;;;;4.07;1.67;;;;;;;;;;5080525;28;20253;-31
2022/04/19 14:40:48;;;;;;;2.43;1.50;;;;;;;;;;5086576;28;20284;-33
2022/04/19 14:43:16;;;;;;;2.17;1.30;;;;;;;;;;5079188;28;20212;-32
2022/04/19 14:45:43;;;;;;;1.57;1.47;;;;;;;;;;5091414;28;20251;-30
2022/04/19 14:48:10;;;;;;;1.73;1.40;;;;;;;;;;5079138;28;20213;-33
2022/04/19 14:53:20;;;;;;;1.87;1.60;;;;;;;;;;5090724;28;20211;-31
2022/04/19 14:55:47;;;;;;;1.70;1.60;;;;;;;;;;5086541;28;20311;-31
2022/04/19 14:58:14;;;;;;;3.73;1.60;;;;;;;;;;5089817;28;20272;-30
2022/04/19 15:00:41;;;;;;;3.67;1.57;;;;;;;;;;5073942;28;20197;-29
2022/04/19 15:03:08;;;;;;;1.57;1.47;;;;;;;;;;5078243;28;20204;-30
2022/04/19 15:05:36;;;;;;;3.13;1.47;;;;;;;;;;5078159;28;20229;-31
2022/04/19 15:08:05;;;;;;;1.40;1.30;;;;;;;;;;5090676;28;20360;-30
2022/04/19 15:10:32;;;;;;;1.77;1.27;;;;;;;;;;5091616;28;20225;-30
2022/04/19 15:12:59;;;;;;;1.40;1.30;;;;;;;;;;5079022;28;20204;-30
2022/04/19 15:15:27;;;;;;;1.20;1.20;;;;;;;;;;5087200;28;20244;-32
2022/04/19 15:17:55;;;;;;;1.20;1.10;;;;;;;;;;5077177;28;20209;-29
2022/04/19 15:20:22;;;;;;;1.10;1.10;;;;;;;;;;5083482;28;20212;-33
2022/04/19 15:22:50;;;;;;;1.43;1.33;;;;;;;;;;5088951;28;20227;-31
2022/04/19 15:25:19;;;;;;;1.23;1.13;;;;;;;;;;5082159;28;20225;-31
2022/04/19 15:27:46;;;;;;;1.33;1.23;;;;;;;;;;5087271;28;20205;-29
2022/04/19 15:30:13;;;;;;;1.87;1.30;;;;;;;;;;5085461;28;20251;-30
2022/04/19 15:32:40;;;;;;;2.13;1.10;;;;;;;;;;5085180;28;20201;-31
2022/04/19 15:35:08;;;;;;;1.67;1.30;;;;;;;;;;5084486;28;20236;-30
2022/04/19 15:37:35;;;;;;;1.97;1.43;;;;;;;;;;5082975;28;20205;-30
2022/04/19 15:40:03;;;;;;;3.97;1.33;;;;;;;;;;5080911;28;20231;-30
2022/04/19 15:42:31;;;;;;;1.40;1.30;;;;;;;;;;5072900;28;20225;-31
2022/04/19 15:44:58;;;;;;;1.43;0.80;;;;;;;;;;5083291;28;20255;-33
2022/04/19 15:47:25;;;;;;;1.43;1.20;;;;;;;;;;5081556;28;20210;-33
2022/04/19 15:49:52;;;;;;;2.57;1.37;;;;;;;;;;5090625;28;20207;-30
2022/04/19 15:52:20;;;;;;;1.40;1.27;;;;;;;;;;5091498;28;20218;-30
2022/04/19 15:54:47;;;;;;;1.57;1.47;;;;;;;;;;5087414;28;20205;-33